createdAt,value
2023-03-05T00:04:29.571Z,4.56
2023-03-05T00:09:51.255Z,4.59
2023-03-05T00:15:13.156Z,4.47
2023-03-05T00:20:35.201Z,4.59
2023-03-05T00:25:57.136Z,4.49
2023-03-05T00:31:24.176Z,4.54
2023-03-05T00:36:49.069Z,4.62
2023-03-05T00:42:10.805Z,4.59
2023-03-05T00:47:32.723Z,4.69
2023-03-05T00:52:54.977Z,4.81
2023-03-05T00:58:16.751Z,4.73
2023-03-05T01:03:38.496Z,4.71
2023-03-05T01:09:00.253Z,4.70
2023-03-05T01:14:22.043Z,4.74
2023-03-05T01:19:43.985Z,4.86
2023-03-05T01:25:06.081Z,4.85
2023-03-05T01:30:27.816Z,4.74
2023-03-05T01:35:50.388Z,4.62
2023-03-05T01:41:14.343Z,4.68
2023-03-05T01:46:38.381Z,4.78
2023-03-05T01:52:07.352Z,4.71
2023-03-05T01:57:34.934Z,4.74
2023-03-05T02:02:58.617Z,4.74
2023-03-05T02:08:22.416Z,4.81
2023-03-05T02:13:44.275Z,4.69
2023-03-05T02:19:09.643Z,4.73
2023-03-05T02:24:37.030Z,4.61
2023-03-05T02:29:58.741Z,4.67
2023-03-05T02:35:20.965Z,4.67
2023-03-05T02:40:42.909Z,4.74
2023-03-05T02:46:05.864Z,4.69
2023-03-05T02:51:28.150Z,4.66
2023-03-05T02:56:50.378Z,4.69
2023-03-05T03:02:13.014Z,4.68
2023-03-05T03:07:36.538Z,4.58
2023-03-05T03:12:58.553Z,4.69
2023-03-05T03:18:20.277Z,4.68
2023-03-05T03:23:42.091Z,4.61
2023-03-05T03:29:03.891Z,4.60
2023-03-05T03:34:26.556Z,4.42
2023-03-05T03:39:48.405Z,4.54
2023-03-05T03:45:10.617Z,4.60
2023-03-05T03:50:32.477Z,4.64
2023-03-05T03:55:58.818Z,4.76
2023-03-05T04:01:21.455Z,4.83
2023-03-05T04:06:43.839Z,4.75
2023-03-05T04:12:05.931Z,4.82
2023-03-05T04:17:27.729Z,4.83
2023-03-05T04:22:49.481Z,4.73
2023-03-05T04:28:11.665Z,4.80
2023-03-05T04:33:33.968Z,4.90
2023-03-05T04:38:55.714Z,4.91
2023-03-05T04:44:17.928Z,4.89
2023-03-05T04:49:39.732Z,4.91
2023-03-05T04:55:01.651Z,4.95
2023-03-05T05:00:23.797Z,4.70
2023-03-05T05:05:45.621Z,4.55
2023-03-05T05:11:08.271Z,4.46
2023-03-05T05:16:30.232Z,4.47
2023-03-05T05:21:52.003Z,4.59
2023-03-05T05:27:13.810Z,4.75
2023-03-05T05:32:35.678Z,4.68
2023-03-05T05:37:57.442Z,4.71
2023-03-05T05:43:19.210Z,4.67
2023-03-05T05:48:41.348Z,4.56
2023-03-05T05:54:03.114Z,4.77
2023-03-05T05:59:25.076Z,4.71
2023-03-05T06:04:46.865Z,4.74
2023-03-05T06:10:10.019Z,4.74
2023-03-05T06:15:31.951Z,4.70
2023-03-05T06:20:58.316Z,4.91
2023-03-05T06:26:22.174Z,4.86
2023-03-05T06:31:43.917Z,4.71
2023-03-05T06:37:05.947Z,4.79
2023-03-05T06:42:27.736Z,4.76
2023-03-05T06:47:49.553Z,4.72
2023-03-05T06:53:11.267Z,4.76
2023-03-05T06:58:33.000Z,5.01
2023-03-05T07:03:58.822Z,5.01
2023-03-05T07:09:20.677Z,4.98
2023-03-05T07:14:42.412Z,5.03
2023-03-05T07:20:04.790Z,4.89
2023-03-05T07:25:26.517Z,4.91
2023-03-05T07:30:59.678Z,4.97
2023-03-05T07:36:21.527Z,4.98
2023-03-05T07:41:43.279Z,5.07
2023-03-05T07:47:05.588Z,4.96
2023-03-05T07:52:27.379Z,4.89
2023-03-05T07:57:49.120Z,4.90
2023-03-05T08:03:10.835Z,4.91
2023-03-05T08:08:33.038Z,5.05
2023-03-05T08:13:54.814Z,5.24
2023-03-05T08:19:16.569Z,5.14
2023-03-05T08:24:38.344Z,5.12
2023-03-05T08:30:02.702Z,5.17
2023-03-05T08:35:24.616Z,5.26
2023-03-05T08:40:46.395Z,5.17
2023-03-05T08:46:08.437Z,5.14
2023-03-05T08:51:30.354Z,5.26
2023-03-05T08:56:52.074Z,5.31
2023-03-05T09:02:14.107Z,5.35
2023-03-05T09:07:37.779Z,5.35
2023-03-05T09:12:59.592Z,5.38
2023-03-05T09:18:21.500Z,5.40
2023-03-05T09:23:44.348Z,5.38
2023-03-05T09:29:07.534Z,5.49
2023-03-05T09:34:29.334Z,5.51
2023-03-05T09:39:51.125Z,5.47
2023-03-05T09:45:17.894Z,5.35
2023-03-05T09:50:44.560Z,5.42
2023-03-05T09:56:28.187Z,5.46
2023-03-05T10:01:52.843Z,5.52
2023-03-05T10:07:38.476Z,5.81
2023-03-05T10:13:05.484Z,5.81
2023-03-05T10:18:38.339Z,5.86
2023-03-05T10:24:25.429Z,5.80
2023-03-05T10:30:08.047Z,5.73
2023-03-05T10:35:44.255Z,5.73
2023-03-05T10:41:36.964Z,5.78
2023-03-05T10:47:00.748Z,5.77
2023-03-05T10:52:34.975Z,5.87
2023-03-05T10:57:56.759Z,6.00
2023-03-05T11:03:18.598Z,5.89
2023-03-05T11:08:40.920Z,5.85
2023-03-05T11:14:03.964Z,5.97
2023-03-05T11:19:33.426Z,5.81
2023-03-05T11:25:18.334Z,5.81
2023-03-05T11:30:40.629Z,5.65
2023-03-05T11:36:43.100Z,5.59
2023-03-05T11:42:11.652Z,5.66
2023-03-05T11:47:44.384Z,5.58
2023-03-05T11:53:12.067Z,5.56
2023-03-05T11:59:04.502Z,5.57
2023-03-05T12:04:26.825Z,5.62
2023-03-05T12:09:53.164Z,5.76
2023-03-05T12:15:17.653Z,5.73
2023-03-05T12:20:51.392Z,5.72
2023-03-05T12:26:13.250Z,5.57
2023-03-05T12:31:38.290Z,5.69
2023-03-05T12:37:00.045Z,5.70
2023-03-05T12:42:27.849Z,5.68
2023-03-05T12:47:55.307Z,5.50
2023-03-05T12:53:20.487Z,5.63
2023-03-05T12:58:51.035Z,5.69
2023-03-05T13:04:34.138Z,5.73
2023-03-05T13:10:02.086Z,5.68
2023-03-05T13:15:25.756Z,5.74
2023-03-05T13:20:52.123Z,5.91
2023-03-05T13:26:19.129Z,5.93
2023-03-05T13:31:54.391Z,5.97
2023-03-05T13:37:22.450Z,6.10
2023-03-05T13:42:44.565Z,6.02
2023-03-05T13:48:10.385Z,5.90
2023-03-05T13:53:33.995Z,5.86
2023-03-05T13:58:56.995Z,5.81
2023-03-05T14:04:23.468Z,5.90
2023-03-05T14:09:48.511Z,5.92
2023-03-05T14:15:31.771Z,5.83
2023-03-05T14:21:10.443Z,5.82
2023-03-05T14:26:38.362Z,5.81
2023-03-05T14:32:06.957Z,5.80
2023-03-05T14:37:42.787Z,5.78
2023-03-05T14:43:10.702Z,5.59
2023-03-05T14:48:32.439Z,5.56
2023-03-05T14:53:55.049Z,5.58
2023-03-05T14:59:18.301Z,5.55
2023-03-05T15:04:40.646Z,5.64
2023-03-05T15:10:02.484Z,5.57
2023-03-05T15:15:24.403Z,5.58
2023-03-05T15:20:48.816Z,5.38
2023-03-05T15:26:14.103Z,5.52
2023-03-05T15:31:38.690Z,5.43
2023-03-05T15:37:02.293Z,5.57
2023-03-05T15:42:24.042Z,5.43
2023-03-05T15:47:48.986Z,5.48
2023-03-05T15:53:13.363Z,5.45
2023-03-05T15:58:35.074Z,5.36
2023-03-05T16:03:56.856Z,5.38
2023-03-05T16:09:20.136Z,5.43
2023-03-05T16:14:42.362Z,5.53
2023-03-05T16:20:04.961Z,5.41
2023-03-05T16:25:26.900Z,5.48
2023-03-05T16:30:56.663Z,5.41
2023-03-05T16:36:24.690Z,5.50
2023-03-05T16:41:46.636Z,5.30
2023-03-05T16:47:11.955Z,5.47
2023-03-05T16:52:33.775Z,5.49
2023-03-05T16:57:55.559Z,5.17
2023-03-05T17:03:17.367Z,5.24
2023-03-05T17:08:39.897Z,5.41
2023-03-05T17:14:03.892Z,5.30
2023-03-05T17:19:25.813Z,5.25
2023-03-05T17:24:48.037Z,5.27
2023-03-05T17:30:10.577Z,5.32
2023-03-05T17:35:32.597Z,5.23
2023-03-05T17:40:54.428Z,5.17
2023-03-05T17:46:16.808Z,5.22
2023-03-05T17:51:38.617Z,5.23
2023-03-05T17:57:00.836Z,5.32
2023-03-05T18:02:22.593Z,5.28
2023-03-05T18:07:44.516Z,5.28
2023-03-05T18:13:06.385Z,5.18
2023-03-05T18:18:29.233Z,5.17
2023-03-05T18:23:51.480Z,5.02
2023-03-05T18:29:13.370Z,4.96
2023-03-05T18:34:35.189Z,4.99
2023-03-05T18:39:57.979Z,5.05
2023-03-05T18:45:22.077Z,4.77
2023-03-05T18:50:44.048Z,4.71
2023-03-05T18:56:06.300Z,4.91
2023-03-05T19:01:28.308Z,5.15
2023-03-05T19:06:50.191Z,4.99
2023-03-05T19:12:11.948Z,5.05
2023-03-05T19:17:33.779Z,4.89
2023-03-05T19:22:55.759Z,5.11
2023-03-05T19:28:17.532Z,5.12
2023-03-05T19:33:39.284Z,4.98
2023-03-05T19:39:04.010Z,4.96
2023-03-05T19:44:26.508Z,4.71
2023-03-05T19:49:48.271Z,4.72
2023-03-05T19:55:10.464Z,4.76
2023-03-05T20:00:32.312Z,4.83
2023-03-05T20:05:54.067Z,4.86
2023-03-05T20:11:16.999Z,4.84
2023-03-05T20:16:39.569Z,5.01
2023-03-05T20:22:01.506Z,4.94
2023-03-05T20:27:24.339Z,4.99
2023-03-05T20:32:46.598Z,5.13
2023-03-05T20:38:20.677Z,4.89
2023-03-05T20:43:45.727Z,5.13
2023-03-05T20:49:08.743Z,5.17
2023-03-05T20:54:30.732Z,5.19
2023-03-05T20:59:52.595Z,5.24
2023-03-05T21:05:14.659Z,5.18
2023-03-05T21:10:37.671Z,5.23
2023-03-05T21:15:59.815Z,5.16
2023-03-05T21:21:21.771Z,4.93
2023-03-05T21:26:43.562Z,4.99
2023-03-05T21:32:05.486Z,4.83
2023-03-05T21:37:27.380Z,4.70
2023-03-05T21:42:49.505Z,4.81
2023-03-05T21:48:11.358Z,4.84
2023-03-05T21:53:33.202Z,4.70
2023-03-05T21:58:54.968Z,4.92
2023-03-05T22:04:16.760Z,4.89
2023-03-05T22:09:39.584Z,4.85
2023-03-05T22:15:01.460Z,4.86
2023-03-05T22:20:23.264Z,4.80
2023-03-05T22:25:45.191Z,4.65
2023-03-05T22:31:07.100Z,4.75
2023-03-05T22:36:29.299Z,4.91
2023-03-05T22:41:51.102Z,4.78
2023-03-05T22:47:12.837Z,4.78
2023-03-05T22:52:34.787Z,4.84
2023-03-05T22:57:56.545Z,4.88
2023-03-05T23:03:18.419Z,4.86
2023-03-05T23:08:40.201Z,5.00
2023-03-05T23:14:01.938Z,4.83
2023-03-05T23:19:23.673Z,4.91
2023-03-05T23:24:45.578Z,4.98
2023-03-05T23:30:19.886Z,4.87
2023-03-05T23:35:49.245Z,4.97
2023-03-05T23:41:11.189Z,5.01
2023-03-05T23:46:33.033Z,5.07
2023-03-05T23:51:54.753Z,5.05
2023-03-05T23:57:16.738Z,4.98
